Historyczne dane pomiarowe

Dodano dane terminowe – wersja testowa.

Dane z okresu 1951-2019

Wersja bazy: 1.34 [2019-03-16, lista zmian], aktualizacja planowana na 2019-04-15

Dane meteo z obszaru Polski uzyskane na podstawie danych udostępnionych przez Instytut Meteorologii i Gospodarki Wodnej – Państwowy Instytut Badawczy.

 

Wybierz Datę:    

       

TemperaturaWilgotnośćWiatrCiśnienieOpadyŚniegCzas trwania zjawisk
 Stacja t tx tn tng RH VA  wxwx mslp ppp RRR   cm mm wxwxwxwxwxwxwx
1956-11-09 -4.2 -1.7 -6.2- 72.8- 4.3 1.7---- 0.0------------
1956-11-08 -2.7 0.2 -5.0- 68.3- 1.7 3.0---- 0.0------------
1956-11-07 -1.6 2.5 -3.2- 73.8- 3.0 4.3---- 0.0------------
1956-11-06 1.0 3.8 -0.1- 74.8- 5.3 7.0---- 0.0------------
1956-11-05 2.4 5.8 -1.9- 84.3- 7.7 3.0---- 2.4------------
1956-11-04 0.0 4.3 -3.1- 74.0- 1.3 3.0---- 0.0------------
1956-11-03 0.2 2.5 -2.0- 88.0- 7.3 1.0---- 0.0------------
1956-11-02 0.2 3.3 -0.9- 88.8- 3.7 2.0---- 0.0------------
1956-11-01 -0.8 1.2 -6.2- 66.0- 7.3 6.3---- 0.7------------
1956-10-31 -5.5 -2.7 -8.3- 68.3- 0.7 3.7---- 0.0------------
1956-10-30 -1.3 5.1 -2.9- 86.5- 8.0 5.7---- 0.0------------
1956-10-29 5.6 10.5 4.1- 86.0- 6.7 2.7---- 0.0------------
1956-10-28 9.7 10.4 8.5- 96.8- 8.0 5.7---- 8.5------------
1956-10-27 9.5 11.9 7.6- 92.5- 8.0 4.7---- 2.3------------
1956-10-26 8.5 10.7 6.0- 96.5- 7.7 2.0---- 1.1------------
1956-10-25 10.8 15.8 6.4- 86.5- 4.7 2.3---- 0.0------------
1956-10-24 10.1 13.0 5.3- 90.8- 5.3 2.0---- 0.0------------
1956-10-23 9.7 11.5 8.6- 84.0- 7.3 2.0---- 0.0------------
1956-10-22 10.5 12.6 9.3- 92.0- 8.0 3.3---- 0.0------------
1956-10-21 11.7 15.2 7.8- 91.8- 3.7 2.0---- 0.0------------
1956-10-20 9.2 11.9 5.2- 92.8- 7.0 2.0---- 0.0------------
1956-10-19 9.6 13.2 7.7- 97.0- 7.7 3.7---- 0.5------------
1956-10-18 9.8 12.7 3.9- 91.0- 8.0 2.0---- 0.8------------
1956-10-17 7.3 12.2 3.8- 75.8- 2.3 1.7---- 0.0------------
1956-10-16 6.9 10.0 1.4- 83.3- 6.0 1.7---- 0.0------------
1956-10-15 5.6 11.4 1.5- 84.3- 1.3 4.0---- 0.0------------
1956-10-14 7.4 10.8 6.0- 72.0- 1.3 6.3---- 0.0------------
1956-10-13 10.3 12.4 8.1- 77.8- 8.0 7.3---- 6.0------------
1956-10-12 9.4 11.6 8.1- 87.0- 8.0 5.0---- 0.0------------
1956-10-11 8.4 11.3 4.9- 80.0- 7.3 5.0---- 0.2------------
1956-10-10 4.7 8.4 0.1- 79.8- 4.7 3.0---- 0.0------------
1956-10-09 6.3 8.9 0.9- 91.0- 5.3 4.3---- 0.6------------
1956-10-08 4.4 8.9 3.0- 91.8- 4.3 3.0---- 0.0------------
1956-10-07 7.1 8.3 4.6- 84.0- 8.0 9.0---- 1.4------------
1956-10-06 7.6 9.6 6.8- 98.0- 8.0 4.7---- 47.0------------
1956-10-05 10.3 15.6 8.3- 86.8- 6.0 2.0---- 0.2------------
1956-10-04 9.5 12.2 6.0- 93.3- 6.0 1.3---- 1.2------------
1956-10-03 13.7 19.0 10.0- 83.0- 5.3 3.3---- 0.0------------
1956-10-02 17.4 25.3 9.7- 74.3- 4.7 3.0---- 0.0------------
1956-10-01 15.2 23.2 6.4- 84.8- 4.3 3.3---- 0.0------------
1956-09-30 11.8 16.5 9.5- 92.8- 4.3 3.7---- 0.0------------
1956-09-29 16.4 20.9 12.6- 86.0- 6.7 4.3---- 0.8------------
1956-09-28 14.3 18.9 11.2- 86.0- 5.0 5.7---- 0.0------------
1956-09-27 16.4 23.9 8.5- 69.0- 3.0 3.3---- 0.1------------
1956-09-26 13.2 21.6 5.9- 76.0- 0.0 2.3---- 0.0------------
1956-09-25 10.1 17.1 1.2- 80.8- 0.7 2.7---- 0.0------------
1956-09-24 7.8 14.4 2.0- 69.3- 0.0 4.3---- 0.0------------
1956-09-23 10.0 15.7 5.7- 76.5- 2.7 3.0---- 0.0------------
1956-09-22 11.4 18.4 4.7- 81.3- 1.3 2.0---- 0.0------------
1956-09-21 11.2 18.0 4.7- 76.0- 1.0 0.0---- 0.0------------
1956-09-20 11.0 17.4 3.7- 75.8- 5.0 0.3---- 0.0------------
1956-09-19 9.7 16.0 3.2- 76.3- 1.3 0.7---- 0.0------------
1956-09-18 8.9 14.0 5.2- 79.0- 3.7 3.0---- 0.0------------
1956-09-17 9.2 14.9 7.6- 73.8- 4.3 4.0---- 0.2------------
1956-09-16 10.6 13.7 6.4- 81.8- 7.3 5.0---- 0.0------------
1956-09-15 10.2 15.0 6.0- 87.5- 6.0 3.7---- 0.0------------
1956-09-14 11.2 15.3 7.0- 80.3- 5.0 2.3---- 0.0------------
1956-09-13 9.6 14.2 7.3- 87.0- 3.3 3.3---- 0.3------------
1956-09-12 10.9 15.4 9.0- 92.3- 5.7 3.0---- 11.1------------
1956-09-11 13.4 14.9 12.9- 95.8- 7.7 2.3---- 3.3------------
249.1 ms

 

Źródłem pochodzenia danych jest Instytut Meteorologii i Gospodarki Wodnej – Państwowy Instytut Badawczy. Dane Instytutu Meteorologii i Gospodarki Wodnej – Państwowego Instytutu Badawczego zostały przetworzone.

Dane źródłowe można odnaleźć na stronie https://dane.imgw.pl